createdAt,value
2023-03-06T00:01:33.641Z,95.35
2023-03-06T00:03:35.185Z,95.65
2023-03-06T00:05:36.727Z,96.10
2023-03-06T00:07:38.272Z,96.04
2023-03-06T00:09:39.725Z,95.47
2023-03-06T00:11:41.203Z,96.11
2023-03-06T00:13:42.666Z,95.96
2023-03-06T00:15:44.221Z,95.64
2023-03-06T00:17:45.666Z,95.81
2023-03-06T00:19:47.256Z,95.87
2023-03-06T00:21:49.144Z,95.64
2023-03-06T00:23:50.600Z,95.65
2023-03-06T00:25:52.073Z,95.54
2023-03-06T00:27:53.548Z,95.83
2023-03-06T00:29:56.494Z,96.00
2023-03-06T00:31:58.015Z,95.49
2023-03-06T00:33:59.488Z,95.84
2023-03-06T00:36:04.185Z,96.30
2023-03-06T00:38:05.655Z,96.31
2023-03-06T00:40:09.848Z,96.01
2023-03-06T00:42:11.421Z,96.04
2023-03-06T00:44:12.951Z,95.82
2023-03-06T00:46:14.436Z,96.06
2023-03-06T00:48:15.907Z,96.56
2023-03-06T00:50:17.498Z,96.74
2023-03-06T00:52:18.964Z,96.69
2023-03-06T00:54:20.444Z,97.31
2023-03-06T00:56:21.942Z,97.24
2023-03-06T00:58:23.412Z,97.22
2023-03-06T01:00:25.046Z,97.86
2023-03-06T01:02:26.586Z,97.97
2023-03-06T01:04:28.175Z,97.85
2023-03-06T01:06:29.725Z,97.17
2023-03-06T01:08:31.201Z,97.37
2023-03-06T01:10:32.750Z,96.87
2023-03-06T01:12:34.218Z,97.12
2023-03-06T01:14:35.950Z,96.92
2023-03-06T01:16:37.502Z,96.62
2023-03-06T01:18:39.295Z,96.59
2023-03-06T01:20:40.842Z,96.10
2023-03-06T01:22:42.714Z,96.23
2023-03-06T01:24:44.192Z,95.78
2023-03-06T01:26:45.695Z,95.85
2023-03-06T01:28:47.200Z,95.50
2023-03-06T01:30:48.803Z,95.50
2023-03-06T01:32:50.286Z,96.09
2023-03-06T01:34:51.769Z,95.60
2023-03-06T01:36:53.248Z,95.51
2023-03-06T01:38:54.764Z,95.84
2023-03-06T01:40:56.207Z,95.65
2023-03-06T01:42:57.713Z,95.73
2023-03-06T01:45:28.172Z,95.60
2023-03-06T01:47:29.772Z,95.65
2023-03-06T01:49:36.278Z,95.54
2023-03-06T01:52:01.823Z,95.51
2023-03-06T01:54:08.166Z,95.43
2023-03-06T01:56:13.336Z,95.35
2023-03-06T01:58:18.318Z,95.15
2023-03-06T02:00:25.544Z,95.15
2023-03-06T02:02:27.270Z,95.28
2023-03-06T02:04:29.812Z,95.11
2023-03-06T02:06:35.631Z,94.97
2023-03-06T02:08:37.277Z,94.92
2023-03-06T02:10:42.412Z,95.05
2023-03-06T02:12:44.283Z,95.03
2023-03-06T02:14:46.908Z,94.94
2023-03-06T02:16:48.605Z,95.10
2023-03-06T02:18:51.613Z,95.25
2023-03-06T02:20:57.397Z,95.75
2023-03-06T02:23:04.598Z,95.65
2023-03-06T02:25:24.741Z,95.17
2023-03-06T02:27:27.771Z,95.36
2023-03-06T02:29:30.401Z,95.08
2023-03-06T02:31:33.440Z,95.36
2023-03-06T02:33:34.904Z,96.19
2023-03-06T02:35:39.076Z,96.04
2023-03-06T02:37:40.569Z,96.60
2023-03-06T02:39:46.794Z,96.25
2023-03-06T02:41:48.298Z,96.38
2023-03-06T02:43:51.970Z,96.01
2023-03-06T02:45:53.627Z,96.16
2023-03-06T02:47:55.120Z,97.03
2023-03-06T02:49:56.594Z,97.01
2023-03-06T02:51:58.093Z,97.09
2023-03-06T02:53:59.601Z,97.14
2023-03-06T02:56:01.296Z,96.74
2023-03-06T02:58:03.512Z,96.34
2023-03-06T03:00:07.076Z,96.40
2023-03-06T03:02:08.650Z,96.35
2023-03-06T03:04:10.952Z,96.46
2023-03-06T03:06:12.452Z,96.25
2023-03-06T03:08:13.972Z,96.18
2023-03-06T03:10:16.041Z,95.78
2023-03-06T03:12:17.530Z,95.70
2023-03-06T03:14:19.021Z,95.24
2023-03-06T03:16:20.598Z,94.92
2023-03-06T03:18:22.124Z,95.24
2023-03-06T03:20:23.740Z,94.72
2023-03-06T03:22:25.212Z,94.62
2023-03-06T03:24:26.818Z,94.33
2023-03-06T03:26:28.341Z,94.79
2023-03-06T03:28:29.831Z,94.62
2023-03-06T03:30:31.293Z,94.16
2023-03-06T03:32:32.912Z,94.72
2023-03-06T03:34:34.511Z,94.52
2023-03-06T03:36:36.049Z,94.06
2023-03-06T03:38:37.568Z,94.31
2023-03-06T03:40:39.152Z,93.76
2023-03-06T03:42:40.661Z,94.19
2023-03-06T03:44:42.188Z,93.60
2023-03-06T03:46:44.070Z,93.79
2023-03-06T03:48:45.667Z,93.43
2023-03-06T03:50:47.129Z,93.91
2023-03-06T03:52:48.590Z,93.30
2023-03-06T03:54:50.074Z,93.24
2023-03-06T03:56:51.596Z,93.63
2023-03-06T03:58:54.694Z,93.38
2023-03-06T04:00:56.278Z,93.38
2023-03-06T04:02:57.787Z,93.33
2023-03-06T04:04:59.754Z,93.30
2023-03-06T04:07:01.315Z,93.63
2023-03-06T04:09:04.538Z,93.06
2023-03-06T04:11:06.234Z,93.03
2023-03-06T04:13:09.958Z,93.40
2023-03-06T04:15:11.720Z,93.35
2023-03-06T04:17:13.239Z,93.04
2023-03-06T04:19:14.739Z,93.04
2023-03-06T04:21:16.301Z,93.20
2023-03-06T04:23:19.141Z,93.04
2023-03-06T04:25:20.669Z,93.27
2023-03-06T04:27:22.142Z,93.46
2023-03-06T04:29:23.816Z,93.66
2023-03-06T04:31:25.294Z,93.08
2023-03-06T04:33:26.942Z,93.89
2023-03-06T04:35:28.498Z,93.20
2023-03-06T04:37:29.977Z,93.51
2023-03-06T04:39:31.479Z,93.48
2023-03-06T04:41:32.990Z,93.83
2023-03-06T04:43:34.539Z,93.85
2023-03-06T04:45:36.123Z,93.28
2023-03-06T04:47:37.660Z,93.12
2023-03-06T04:49:39.188Z,92.98
2023-03-06T04:51:40.637Z,93.43
2023-03-06T04:53:42.148Z,92.92
2023-03-06T04:55:43.673Z,93.53
2023-03-06T04:57:46.598Z,93.10
2023-03-06T04:59:49.617Z,93.46
2023-03-06T05:01:51.208Z,93.07
2023-03-06T05:03:52.773Z,92.97
2023-03-06T05:05:54.306Z,93.12
2023-03-06T05:07:56.145Z,92.86
2023-03-06T05:09:57.609Z,93.03
2023-03-06T05:11:59.041Z,93.36
2023-03-06T05:14:00.552Z,93.19
2023-03-06T05:16:06.652Z,93.24
2023-03-06T05:18:08.275Z,93.45
2023-03-06T05:20:12.684Z,93.81
2023-03-06T05:22:14.142Z,93.83
2023-03-06T05:24:15.774Z,94.54
2023-03-06T05:26:17.250Z,94.37
2023-03-06T05:28:18.740Z,95.41
2023-03-06T05:30:22.459Z,95.77
2023-03-06T05:32:35.440Z,96.67
2023-03-06T05:34:37.281Z,97.34
2023-03-06T05:36:38.774Z,97.30
2023-03-06T05:38:40.470Z,97.90
2023-03-06T05:40:43.854Z,98.26
2023-03-06T05:42:45.334Z,98.12
2023-03-06T05:44:46.964Z,97.97
2023-03-06T05:46:49.978Z,98.54
2023-03-06T05:48:54.046Z,98.54
2023-03-06T05:50:58.456Z,98.66
2023-03-06T05:53:00.219Z,98.55
2023-03-06T05:55:01.864Z,98.76
2023-03-06T05:57:04.934Z,99.17
2023-03-06T05:59:06.425Z,98.89
2023-03-06T06:01:10.865Z,99.19
2023-03-06T06:03:12.445Z,99.25
2023-03-06T06:05:14.085Z,99.49
2023-03-06T06:07:16.572Z,99.66
2023-03-06T06:09:18.091Z,99.48
2023-03-06T06:11:20.832Z,100.00
2023-03-06T06:13:22.304Z,100.00
2023-03-06T06:15:23.890Z,100.00
2023-03-06T06:17:25.358Z,100.00
2023-03-06T06:19:29.715Z,100.00
2023-03-06T06:21:31.183Z,100.00
2023-03-06T06:23:33.133Z,100.00
2023-03-06T06:25:35.630Z,100.00
2023-03-06T06:27:37.092Z,100.00
2023-03-06T06:29:38.560Z,100.00
2023-03-06T06:31:40.608Z,100.00
2023-03-06T06:33:43.175Z,100.00
2023-03-06T06:35:44.696Z,100.00
2023-03-06T06:37:46.150Z,100.00
2023-03-06T06:39:47.624Z,100.00
2023-03-06T06:42:05.480Z,100.00
2023-03-06T06:44:15.523Z,100.00
2023-03-06T06:46:53.357Z,100.00
2023-03-06T06:48:38.470Z,100.00
2023-03-06T06:50:39.976Z,100.00
2023-03-06T06:52:41.755Z,100.00
2023-03-06T06:54:43.226Z,100.00
2023-03-06T06:56:44.696Z,100.00
2023-03-06T06:58:46.166Z,100.00
2023-03-06T07:00:47.664Z,100.00
2023-03-06T07:02:51.125Z,100.00
2023-03-06T07:05:03.770Z,100.00
2023-03-06T07:07:06.409Z,100.00
2023-03-06T07:09:08.117Z,100.00
2023-03-06T07:11:13.976Z,100.00
2023-03-06T07:13:15.468Z,100.00
2023-03-06T07:15:17.830Z,100.00
2023-03-06T07:17:19.318Z,100.00
2023-03-06T07:19:20.786Z,100.00
2023-03-06T07:21:22.375Z,100.00
2023-03-06T07:23:24.836Z,100.00
2023-03-06T07:25:26.319Z,100.00
2023-03-06T07:27:27.897Z,100.00
2023-03-06T07:29:29.459Z,100.00
2023-03-06T07:31:31.073Z,100.00
2023-03-06T07:33:32.559Z,100.00
2023-03-06T07:35:34.306Z,100.00
2023-03-06T07:37:35.893Z,100.00
2023-03-06T07:39:37.462Z,100.00
2023-03-06T07:41:39.011Z,100.00
2023-03-06T07:43:41.303Z,100.00
2023-03-06T07:45:42.812Z,100.00
2023-03-06T07:47:45.780Z,100.00
2023-03-06T07:49:47.280Z,100.00
2023-03-06T07:51:48.818Z,100.00
2023-03-06T07:53:50.713Z,100.00
2023-03-06T07:55:53.216Z,100.00
2023-03-06T07:57:54.726Z,100.00
2023-03-06T07:59:56.237Z,100.00
2023-03-06T08:01:57.790Z,100.00
2023-03-06T08:04:01.156Z,100.00
2023-03-06T08:06:07.683Z,100.00
2023-03-06T08:08:09.194Z,100.00
2023-03-06T08:10:13.569Z,100.00
2023-03-06T08:12:16.674Z,100.00
2023-03-06T08:14:18.237Z,100.00
2023-03-06T08:16:25.460Z,100.00
2023-03-06T08:18:28.174Z,100.00
2023-03-06T08:20:29.668Z,100.00
2023-03-06T08:22:31.162Z,100.00
2023-03-06T08:24:33.844Z,100.00
2023-03-06T08:26:35.759Z,100.00
2023-03-06T08:28:37.213Z,100.00
2023-03-06T08:30:38.713Z,100.00
2023-03-06T08:32:40.420Z,100.00
2023-03-06T08:34:42.841Z,100.00
2023-03-06T08:36:44.556Z,100.00
2023-03-06T08:38:46.050Z,100.00
2023-03-06T08:40:47.532Z,100.00
2023-03-06T08:42:49.257Z,100.00
2023-03-06T08:44:50.777Z,100.00
2023-03-06T08:46:52.264Z,100.00
2023-03-06T08:48:54.087Z,100.00
2023-03-06T08:50:55.850Z,100.00
2023-03-06T08:52:57.396Z,100.00
2023-03-06T08:55:03.367Z,100.00
2023-03-06T08:57:05.092Z,100.00
2023-03-06T08:59:06.968Z,100.00
2023-03-06T09:01:14.708Z,100.00
2023-03-06T09:03:16.230Z,100.00
2023-03-06T09:05:17.797Z,100.00
2023-03-06T09:07:19.404Z,100.00
2023-03-06T09:09:20.941Z,100.00
2023-03-06T09:11:24.255Z,100.00
2023-03-06T09:13:25.809Z,100.00
2023-03-06T09:15:27.472Z,100.00
2023-03-06T09:17:29.929Z,99.58
2023-03-06T09:19:31.415Z,99.91
2023-03-06T09:21:33.127Z,99.47
2023-03-06T09:23:35.227Z,99.46
2023-03-06T09:25:36.877Z,99.46
2023-03-06T09:27:38.347Z,99.08
2023-03-06T09:29:39.826Z,99.41
2023-03-06T09:31:41.326Z,99.64
2023-03-06T09:33:43.161Z,99.21
2023-03-06T09:35:53.927Z,99.23
2023-03-06T09:37:55.473Z,97.91
2023-03-06T09:39:57.707Z,96.67
2023-03-06T09:41:59.593Z,95.99
2023-03-06T09:44:05.880Z,95.74
2023-03-06T09:46:42.463Z,95.41
2023-03-06T09:49:02.567Z,94.49
2023-03-06T09:51:12.106Z,93.78
2023-03-06T09:53:41.534Z,94.04
2023-03-06T09:55:50.140Z,95.40
2023-03-06T09:57:56.861Z,95.69
2023-03-06T10:00:04.725Z,95.86
2023-03-06T10:02:17.887Z,96.21
2023-03-06T10:04:37.129Z,96.51
2023-03-06T10:06:46.354Z,95.80
2023-03-06T10:09:06.586Z,95.00
2023-03-06T10:11:13.084Z,93.67
2023-03-06T10:13:20.807Z,91.83
2023-03-06T10:15:31.637Z,91.38
2023-03-06T10:17:41.239Z,90.73
2023-03-06T10:19:42.996Z,90.64
2023-03-06T10:21:56.565Z,90.97
2023-03-06T10:24:04.152Z,91.06
2023-03-06T10:26:15.898Z,91.33
2023-03-06T10:28:21.942Z,91.94
2023-03-06T10:30:32.612Z,92.38
2023-03-06T10:32:54.984Z,92.61
2023-03-06T10:35:01.118Z,92.41
2023-03-06T10:37:18.988Z,92.33
2023-03-06T10:39:22.435Z,91.13
2023-03-06T10:41:28.352Z,90.84
2023-03-06T10:43:29.802Z,90.66
2023-03-06T10:45:40.563Z,90.66
2023-03-06T10:47:48.889Z,91.10
2023-03-06T10:49:58.971Z,91.47
2023-03-06T10:52:02.101Z,91.74
2023-03-06T10:54:19.378Z,91.93
2023-03-06T10:56:37.565Z,91.47
2023-03-06T10:58:39.046Z,90.66
2023-03-06T11:00:40.507Z,89.71
2023-03-06T11:02:42.041Z,88.65
2023-03-06T11:04:51.244Z,88.37
2023-03-06T11:07:17.717Z,88.41
2023-03-06T11:09:19.129Z,87.38
2023-03-06T11:11:36.748Z,86.46
2023-03-06T11:13:41.664Z,86.60
2023-03-06T11:15:56.422Z,86.02
2023-03-06T11:18:31.002Z,83.82
2023-03-06T11:20:49.902Z,83.38
2023-03-06T11:22:55.465Z,77.94
2023-03-06T11:24:58.351Z,76.93
2023-03-06T11:27:07.011Z,76.24
2023-03-06T11:29:29.604Z,73.93
2023-03-06T11:31:35.143Z,72.04
2023-03-06T11:33:47.517Z,72.09
2023-03-06T11:35:56.426Z,71.90
2023-03-06T11:38:06.772Z,70.10
2023-03-06T11:40:10.988Z,69.15
2023-03-06T11:42:37.672Z,69.12
2023-03-06T11:44:47.203Z,68.97
2023-03-06T11:46:53.630Z,67.21
2023-03-06T11:49:06.323Z,65.53
2023-03-06T11:51:36.318Z,66.46
2023-03-06T11:53:39.918Z,62.05
2023-03-06T11:55:59.022Z,61.08
2023-03-06T11:58:28.170Z,58.59
2023-03-06T12:00:44.271Z,59.83
2023-03-06T12:03:09.331Z,58.46
2023-03-06T12:05:28.834Z,58.28
2023-03-06T12:07:36.007Z,57.74
2023-03-06T12:09:52.376Z,58.34
2023-03-06T12:12:10.251Z,59.29
2023-03-06T12:14:20.943Z,58.04
2023-03-06T12:16:43.894Z,58.48
2023-03-06T12:19:12.997Z,55.57
2023-03-06T12:21:29.589Z,55.95
2023-03-06T12:24:08.918Z,54.45
2023-03-06T12:26:48.085Z,53.83
2023-03-06T12:29:12.617Z,50.52
2023-03-06T12:31:31.238Z,51.04
2023-03-06T12:34:02.243Z,51.86
2023-03-06T12:36:04.274Z,54.79
2023-03-06T12:38:17.872Z,52.82
2023-03-06T12:40:28.269Z,55.27
2023-03-06T12:42:29.933Z,54.96
2023-03-06T12:44:44.590Z,53.55
2023-03-06T12:46:57.698Z,58.71
2023-03-06T12:49:08.873Z,58.51
2023-03-06T12:51:17.875Z,54.29
2023-03-06T12:53:27.617Z,56.04
2023-03-06T12:55:36.918Z,58.10
2023-03-06T12:57:38.469Z,55.03
2023-03-06T12:59:49.988Z,55.84
2023-03-06T13:02:05.518Z,54.13
2023-03-06T13:04:43.976Z,53.89
2023-03-06T13:06:51.922Z,51.76
2023-03-06T13:09:17.652Z,53.51
2023-03-06T13:11:58.729Z,56.38
2023-03-06T13:14:00.235Z,55.75
2023-03-06T13:16:21.776Z,55.75
2023-03-06T13:18:23.189Z,61.14
2023-03-06T13:20:38.077Z,56.03
2023-03-06T13:22:41.597Z,53.60
2023-03-06T13:24:45.424Z,59.34
2023-03-06T13:26:46.845Z,54.17
2023-03-06T13:28:50.908Z,54.21
2023-03-06T13:30:53.273Z,54.52
2023-03-06T13:32:56.244Z,54.96
2023-03-06T13:34:57.854Z,55.76
2023-03-06T13:37:17.473Z,55.21
2023-03-06T13:39:18.952Z,55.90
2023-03-06T13:41:23.388Z,55.40
2023-03-06T13:43:25.139Z,55.98
2023-03-06T13:45:47.492Z,56.29
2023-03-06T13:48:21.100Z,56.00
2023-03-06T13:50:35.924Z,56.92
2023-03-06T13:52:49.920Z,56.39
2023-03-06T13:55:00.188Z,54.26
2023-03-06T13:57:39.362Z,54.05
2023-03-06T13:59:44.239Z,55.07
2023-03-06T14:02:23.258Z,52.61
2023-03-06T14:04:46.599Z,54.43
2023-03-06T14:07:21.790Z,53.59
2023-03-06T14:09:27.955Z,53.44
2023-03-06T14:11:30.267Z,55.50
2023-03-06T14:13:47.832Z,54.17
2023-03-06T14:15:54.622Z,55.24
2023-03-06T14:18:02.031Z,55.72
2023-03-06T14:20:13.978Z,54.99
2023-03-06T14:22:18.856Z,56.38
2023-03-06T14:24:29.409Z,55.05
2023-03-06T14:26:41.302Z,56.35
2023-03-06T14:28:45.771Z,57.14
2023-03-06T14:30:52.792Z,55.74
2023-03-06T14:32:55.251Z,54.01
2023-03-06T14:34:56.738Z,51.32
2023-03-06T14:37:01.934Z,50.11
2023-03-06T14:39:14.408Z,48.44
2023-03-06T14:41:24.790Z,48.55
2023-03-06T14:43:27.076Z,49.51
2023-03-06T14:45:28.669Z,49.26
2023-03-06T14:47:32.683Z,51.10
2023-03-06T14:49:34.162Z,52.61
2023-03-06T14:51:42.780Z,53.34
2023-03-06T14:53:46.309Z,53.06
2023-03-06T14:55:51.664Z,54.03
2023-03-06T14:57:59.552Z,55.23
2023-03-06T15:00:01.308Z,56.00
2023-03-06T15:02:06.410Z,54.64
2023-03-06T15:04:25.345Z,54.35
2023-03-06T15:06:39.870Z,56.29
2023-03-06T15:08:45.411Z,55.04
2023-03-06T15:11:05.754Z,56.67
2023-03-06T15:13:23.616Z,56.86
2023-03-06T15:15:27.313Z,57.13
2023-03-06T15:17:32.242Z,58.04
2023-03-06T15:19:40.613Z,58.74
2023-03-06T15:21:47.809Z,59.31
2023-03-06T15:23:51.368Z,57.69
2023-03-06T15:25:56.225Z,58.07
2023-03-06T15:28:02.326Z,58.37
2023-03-06T15:30:24.827Z,58.77
2023-03-06T15:32:29.212Z,58.14
2023-03-06T15:34:30.774Z,58.92
2023-03-06T15:36:37.856Z,58.74
2023-03-06T15:38:42.227Z,58.52
2023-03-06T15:40:54.875Z,59.36
2023-03-06T15:42:57.946Z,59.33
2023-03-06T15:45:05.544Z,59.91
2023-03-06T15:47:11.704Z,60.16
2023-03-06T15:49:16.490Z,59.67
2023-03-06T15:51:18.024Z,58.85
2023-03-06T15:53:20.377Z,60.18
2023-03-06T15:55:25.867Z,60.91
2023-03-06T15:57:30.688Z,60.13
2023-03-06T15:59:41.419Z,60.51
2023-03-06T16:01:43.403Z,61.56
2023-03-06T16:03:45.567Z,61.78
2023-03-06T16:05:47.064Z,61.06
2023-03-06T16:07:48.954Z,61.36
2023-03-06T16:09:50.540Z,60.75
2023-03-06T16:11:52.059Z,61.54
2023-03-06T16:13:56.458Z,61.20
2023-03-06T16:15:57.986Z,61.46
2023-03-06T16:18:00.324Z,61.59
2023-03-06T16:20:01.875Z,60.64
2023-03-06T16:22:04.335Z,61.93
2023-03-06T16:24:05.953Z,61.74
2023-03-06T16:26:19.342Z,62.00
2023-03-06T16:28:20.926Z,61.40
2023-03-06T16:30:23.856Z,61.42
2023-03-06T16:32:28.350Z,62.18
2023-03-06T16:34:30.218Z,62.19
2023-03-06T16:36:32.524Z,64.12
2023-03-06T16:38:33.999Z,63.04
2023-03-06T16:40:41.409Z,62.03
2023-03-06T16:42:43.004Z,63.01
2023-03-06T16:44:44.495Z,63.22
2023-03-06T16:46:47.890Z,63.28
2023-03-06T16:48:49.724Z,63.20
2023-03-06T16:50:51.213Z,62.61
2023-03-06T16:52:55.013Z,62.93
2023-03-06T16:54:56.608Z,62.89
2023-03-06T16:56:58.083Z,63.46
2023-03-06T16:58:59.605Z,63.91
2023-03-06T17:01:02.115Z,63.84
2023-03-06T17:03:03.898Z,65.58
2023-03-06T17:05:07.239Z,65.04
2023-03-06T17:07:08.758Z,66.42
2023-03-06T17:09:14.424Z,65.59
2023-03-06T17:11:16.512Z,65.81
2023-03-06T17:13:18.014Z,65.22
2023-03-06T17:15:19.858Z,65.69
2023-03-06T17:17:21.448Z,66.82
2023-03-06T17:19:22.938Z,67.45
2023-03-06T17:21:26.851Z,68.09
2023-03-06T17:23:30.350Z,68.78
2023-03-06T17:25:31.820Z,70.44
2023-03-06T17:27:34.530Z,70.32
2023-03-06T17:29:36.216Z,69.24
2023-03-06T17:31:37.711Z,69.21
2023-03-06T17:33:39.844Z,69.41
2023-03-06T17:35:41.360Z,68.63
2023-03-06T17:37:42.901Z,68.83
2023-03-06T17:39:44.392Z,69.29
2023-03-06T17:41:46.537Z,69.85
2023-03-06T17:43:48.053Z,70.25
2023-03-06T17:45:49.565Z,69.53
2023-03-06T17:47:53.783Z,68.41
2023-03-06T17:49:55.250Z,68.02
2023-03-06T17:51:59.668Z,68.26
2023-03-06T17:54:01.160Z,68.21
2023-03-06T17:56:08.100Z,69.70
2023-03-06T17:58:12.104Z,70.62
2023-03-06T18:00:14.496Z,71.15
2023-03-06T18:02:16.388Z,70.61
2023-03-06T18:04:17.855Z,70.93
2023-03-06T18:06:20.989Z,71.34
2023-03-06T18:08:22.487Z,71.88
2023-03-06T18:10:24.698Z,71.70
2023-03-06T18:12:26.877Z,71.18
2023-03-06T18:14:28.336Z,70.32
2023-03-06T18:16:30.016Z,71.76
2023-03-06T18:18:31.713Z,72.59
2023-03-06T18:20:33.240Z,72.18
2023-03-06T18:22:34.742Z,71.78
2023-03-06T18:24:36.475Z,72.52
2023-03-06T18:26:40.079Z,73.25
2023-03-06T18:28:44.911Z,74.37
2023-03-06T18:30:46.565Z,74.45
2023-03-06T18:32:48.090Z,74.72
2023-03-06T18:34:50.667Z,75.20
2023-03-06T18:36:52.852Z,75.30
2023-03-06T18:38:55.739Z,75.13
2023-03-06T18:40:57.198Z,74.68
2023-03-06T18:42:58.744Z,74.08
2023-03-06T18:45:00.272Z,73.26
2023-03-06T18:47:01.739Z,73.60
2023-03-06T18:49:04.453Z,73.05
2023-03-06T18:51:10.497Z,72.52
2023-03-06T18:53:11.972Z,72.62
2023-03-06T18:55:13.433Z,73.31
2023-03-06T18:57:14.915Z,73.02
2023-03-06T18:59:18.773Z,73.26
2023-03-06T19:01:21.240Z,73.05
2023-03-06T19:03:22.756Z,73.12
2023-03-06T19:05:24.218Z,73.16
2023-03-06T19:07:25.789Z,73.51
2023-03-06T19:09:27.264Z,72.69
2023-03-06T19:11:29.558Z,73.00
2023-03-06T19:13:31.511Z,72.18
2023-03-06T19:15:34.535Z,72.52
2023-03-06T19:17:37.639Z,72.75
2023-03-06T19:19:39.114Z,72.32
2023-03-06T19:21:40.680Z,72.34
2023-03-06T19:23:42.657Z,71.80
2023-03-06T19:25:44.121Z,72.46
2023-03-06T19:27:46.133Z,72.00
2023-03-06T19:29:47.611Z,72.28
2023-03-06T19:31:50.826Z,72.26
2023-03-06T19:33:54.129Z,72.13
2023-03-06T19:35:55.651Z,72.27
2023-03-06T19:37:57.153Z,71.78
2023-03-06T19:40:01.325Z,72.28
2023-03-06T19:42:04.608Z,72.28
2023-03-06T19:44:06.384Z,71.91
2023-03-06T19:46:12.962Z,71.91
2023-03-06T19:48:14.446Z,72.58
2023-03-06T19:50:16.327Z,72.38
2023-03-06T19:52:18.251Z,71.98
2023-03-06T19:54:23.344Z,71.93
2023-03-06T19:56:27.565Z,71.63
2023-03-06T19:58:29.037Z,71.73
2023-03-06T20:00:30.599Z,72.12
2023-03-06T20:02:32.614Z,72.12
2023-03-06T20:04:34.679Z,71.84
2023-03-06T20:06:39.396Z,71.93
2023-03-06T20:08:44.743Z,72.21
2023-03-06T20:10:46.172Z,71.77
2023-03-06T20:12:48.047Z,71.59
2023-03-06T20:14:49.591Z,71.90
2023-03-06T20:16:51.060Z,71.54
2023-03-06T20:18:52.874Z,71.98
2023-03-06T20:21:02.520Z,71.67
2023-03-06T20:23:04.604Z,71.88
2023-03-06T20:25:06.321Z,72.15
2023-03-06T20:27:07.809Z,72.08
2023-03-06T20:29:09.840Z,72.27
2023-03-06T20:31:11.533Z,72.11
2023-03-06T20:33:13.214Z,72.35
2023-03-06T20:35:14.781Z,73.21
2023-03-06T20:37:16.264Z,73.42
2023-03-06T20:39:21.588Z,73.84
2023-03-06T20:41:25.522Z,74.26
2023-03-06T20:43:27.028Z,74.58
2023-03-06T20:45:28.477Z,75.12
2023-03-06T20:47:29.993Z,75.35
2023-03-06T20:49:31.534Z,75.83
2023-03-06T20:51:37.531Z,75.93
2023-03-06T20:53:39.047Z,76.35
2023-03-06T20:55:40.514Z,76.72
2023-03-06T20:57:41.985Z,77.45
2023-03-06T20:59:45.051Z,77.96
2023-03-06T21:01:47.891Z,78.54
2023-03-06T21:03:49.436Z,79.04
2023-03-06T21:05:50.959Z,79.32
2023-03-06T21:07:52.432Z,79.94
2023-03-06T21:09:53.957Z,80.42
2023-03-06T21:11:55.399Z,81.47
2023-03-06T21:13:57.304Z,82.38
2023-03-06T21:15:58.846Z,83.60
2023-03-06T21:18:01.207Z,84.19
2023-03-06T21:20:02.944Z,85.19
2023-03-06T21:22:04.889Z,85.96
2023-03-06T21:24:06.682Z,86.89
2023-03-06T21:26:12.931Z,87.49
2023-03-06T21:28:14.665Z,88.23
2023-03-06T21:30:16.290Z,88.85
2023-03-06T21:32:17.819Z,89.27
2023-03-06T21:34:19.316Z,90.00
2023-03-06T21:36:21.771Z,90.29
2023-03-06T21:38:23.274Z,91.14
2023-03-06T21:40:24.829Z,91.33
2023-03-06T21:42:26.279Z,92.04
2023-03-06T21:44:27.754Z,92.76
2023-03-06T21:46:29.782Z,93.38
2023-03-06T21:48:31.606Z,94.17
2023-03-06T21:50:33.086Z,94.53
2023-03-06T21:52:34.559Z,94.73
2023-03-06T21:54:35.997Z,95.18
2023-03-06T21:56:37.494Z,95.44
2023-03-06T21:58:39.194Z,95.56
2023-03-06T22:00:41.037Z,95.97
2023-03-06T22:02:42.513Z,96.57
2023-03-06T22:04:44.564Z,96.71
2023-03-06T22:06:46.348Z,96.88
2023-03-06T22:08:48.594Z,97.16
2023-03-06T22:10:50.248Z,97.34
2023-03-06T22:12:51.711Z,97.34
2023-03-06T22:14:53.857Z,97.29
2023-03-06T22:16:56.776Z,97.54
2023-03-06T22:18:58.915Z,97.66
2023-03-06T22:21:00.420Z,97.58
2023-03-06T22:23:01.897Z,97.48
2023-03-06T22:25:04.894Z,97.59
2023-03-06T22:27:06.376Z,97.96
2023-03-06T22:29:07.828Z,97.99
2023-03-06T22:31:14.492Z,98.25
2023-03-06T22:33:16.001Z,98.06
2023-03-06T22:35:17.444Z,98.44
2023-03-06T22:37:18.923Z,98.28
2023-03-06T22:39:20.382Z,98.29
2023-03-06T22:41:22.485Z,98.14
2023-03-06T22:43:24.227Z,98.07
2023-03-06T22:45:25.700Z,98.12
2023-03-06T22:47:27.203Z,97.57
2023-03-06T22:49:28.706Z,98.26
2023-03-06T22:51:30.255Z,98.26
2023-03-06T22:53:32.058Z,98.31
2023-03-06T22:55:35.536Z,98.34
2023-03-06T22:57:37.008Z,98.22
2023-03-06T22:59:38.465Z,98.38
2023-03-06T23:01:40.233Z,98.60
2023-03-06T23:03:44.676Z,98.46
2023-03-06T23:05:46.249Z,98.50
2023-03-06T23:07:47.741Z,98.54
2023-03-06T23:09:49.206Z,98.45
2023-03-06T23:11:50.712Z,98.41
2023-03-06T23:13:53.456Z,98.39
2023-03-06T23:15:54.945Z,98.54
2023-03-06T23:17:56.625Z,98.57
2023-03-06T23:19:58.127Z,98.56
2023-03-06T23:21:59.784Z,98.52
2023-03-06T23:24:01.938Z,98.92
2023-03-06T23:26:04.304Z,98.92
2023-03-06T23:28:05.791Z,99.00
2023-03-06T23:30:09.146Z,99.26
2023-03-06T23:32:10.692Z,99.16
2023-03-06T23:34:12.160Z,99.47
2023-03-06T23:36:15.466Z,99.47
2023-03-06T23:38:17.085Z,99.61
2023-03-06T23:40:18.617Z,99.81
2023-03-06T23:42:20.120Z,99.90
2023-03-06T23:44:21.571Z,100.00
2023-03-06T23:46:23.121Z,100.00
2023-03-06T23:48:25.394Z,100.00
2023-03-06T23:50:26.885Z,100.00
2023-03-06T23:52:28.359Z,100.00
2023-03-06T23:54:29.883Z,100.00
2023-03-06T23:56:31.404Z,100.00
2023-03-06T23:58:33.031Z,100.00
